createdAt,value
2022-10-13T08:15:01.864Z,67.29
2022-10-13T08:17:44.205Z,67.07
2022-10-13T08:20:40.875Z,66.96
2022-10-13T08:23:41.649Z,66.77
2022-10-13T08:26:16.915Z,66.53
2022-10-13T08:29:02.937Z,66.67
2022-10-13T08:31:40.436Z,66.56
2022-10-13T08:34:47.898Z,66.60
2022-10-13T08:37:18.493Z,66.44
2022-10-13T08:39:48.152Z,66.25
2022-10-13T08:42:19.899Z,66.22
2022-10-13T08:45:35.894Z,66.44
2022-10-13T08:52:15.254Z,66.27
2022-10-13T08:55:07.570Z,66.45
2022-10-13T08:57:38.404Z,66.26
2022-10-13T09:00:21.148Z,65.88
2022-10-13T09:02:54.347Z,66.04
2022-10-13T09:05:43.730Z,66.37
2022-10-13T09:11:07.429Z,66.23
2022-10-13T09:13:41.712Z,66.12
2022-10-13T09:16:24.119Z,66.21
2022-10-13T09:18:57.103Z,66.49
2022-10-13T09:21:34.180Z,66.24
2022-10-13T09:24:22.709Z,65.87
2022-10-13T09:27:05.112Z,65.75
2022-10-13T09:29:39.985Z,65.55
2022-10-13T09:32:42.722Z,65.57
2022-10-13T09:35:24.444Z,65.42
2022-10-13T09:38:05.979Z,65.70
2022-10-13T09:43:29.443Z,65.72
2022-10-13T09:46:03.856Z,65.64
2022-10-13T09:48:42.488Z,65.63
2022-10-13T09:51:29.377Z,65.58
2022-10-13T09:54:04.519Z,65.62
2022-10-13T09:56:43.611Z,65.28
2022-10-13T09:59:25.257Z,65.34
2022-10-13T10:04:52.818Z,64.37
2022-10-13T10:07:36.056Z,64.38
2022-10-13T10:10:39.734Z,64.36
2022-10-13T10:13:21.352Z,64.00
2022-10-13T10:19:18.403Z,64.43
2022-10-13T10:21:55.510Z,64.11
2022-10-13T10:27:38.877Z,63.44
2022-10-13T10:30:20.906Z,63.42
2022-10-13T10:32:58.581Z,63.31
2022-10-13T10:35:59.170Z,62.95
2022-10-13T10:41:51.380Z,63.62
2022-10-13T10:44:25.237Z,63.32
2022-10-13T10:47:01.052Z,62.79
2022-10-13T10:52:41.205Z,62.34
2022-10-13T10:58:34.257Z,63.85
2022-10-13T11:01:11.345Z,62.65
2022-10-13T11:03:56.504Z,63.79
2022-10-13T11:13:28.032Z,62.49
2022-10-13T11:16:00.025Z,61.80
2022-10-13T11:19:08.371Z,60.19
2022-10-13T11:22:19.774Z,57.83
2022-10-13T11:25:06.378Z,56.21
2022-10-13T11:28:07.614Z,56.49
2022-10-13T11:31:02.373Z,55.90
2022-10-13T11:34:02.321Z,55.79
2022-10-13T11:37:10.228Z,55.83
2022-10-13T11:40:14.493Z,56.31
2022-10-13T11:43:36.052Z,56.00
2022-10-13T11:46:51.253Z,55.96
2022-10-13T11:53:26.078Z,56.41
2022-10-13T11:56:07.346Z,54.93
2022-10-13T11:58:46.367Z,54.38
2022-10-13T12:01:34.600Z,54.35
2022-10-13T12:04:20.492Z,54.51
2022-10-13T12:10:01.695Z,54.25
2022-10-13T12:12:52.420Z,54.14
2022-10-13T12:15:49.186Z,54.06
2022-10-13T12:18:49.082Z,54.27
2022-10-13T12:21:44.000Z,54.75
2022-10-13T12:24:21.910Z,54.88
2022-10-13T12:34:13.051Z,59.34
2022-10-13T12:37:00.025Z,58.90
2022-10-13T12:39:56.083Z,58.19
2022-10-13T12:46:39.875Z,53.47
2022-10-13T12:49:32.749Z,52.68
2022-10-13T12:54:57.987Z,52.00
2022-10-13T12:57:49.229Z,51.90
2022-10-13T13:00:45.871Z,51.58
2022-10-13T13:03:29.996Z,48.63
2022-10-13T13:06:51.635Z,47.45
2022-10-13T13:10:16.518Z,47.55
2022-10-13T13:16:48.313Z,47.77
2022-10-13T13:23:07.200Z,49.28
2022-10-13T13:25:46.492Z,49.53
2022-10-13T13:29:22.160Z,49.49
2022-10-13T13:32:25.248Z,49.61
2022-10-13T13:41:13.881Z,49.41
2022-10-13T13:44:05.182Z,49.46
2022-10-13T13:46:40.557Z,49.34
2022-10-13T13:49:29.512Z,49.30
2022-10-13T13:52:17.345Z,49.04
2022-10-13T13:54:52.768Z,49.53
2022-10-13T13:57:42.824Z,49.01
2022-10-13T14:03:06.341Z,48.11
2022-10-13T14:05:55.723Z,48.44
2022-10-13T14:08:46.786Z,48.43
2022-10-13T14:11:28.064Z,49.21
2022-10-13T14:17:18.376Z,49.81
2022-10-13T14:19:59.411Z,50.11
2022-10-13T14:22:45.769Z,50.44
2022-10-13T14:25:27.148Z,50.55
2022-10-13T14:30:52.976Z,50.96
2022-10-13T14:33:36.671Z,51.15
2022-10-13T14:38:58.637Z,51.27
2022-10-13T14:41:45.477Z,51.03
2022-10-13T14:44:31.949Z,51.24
2022-10-13T14:47:17.422Z,51.13
2022-10-13T14:49:59.270Z,51.36
2022-10-13T14:52:34.866Z,51.56
2022-10-13T14:55:04.952Z,51.69
2022-10-13T14:57:34.386Z,52.10
2022-10-13T15:00:02.547Z,51.66
2022-10-13T15:02:31.275Z,51.84
2022-10-13T15:04:59.785Z,51.62
2022-10-13T15:07:29.293Z,51.91
2022-10-13T15:10:06.207Z,52.05
2022-10-13T15:12:36.198Z,52.33
2022-10-13T15:15:06.050Z,52.57
2022-10-13T15:17:37.238Z,52.89
2022-10-13T15:20:08.264Z,53.42
2022-10-13T15:22:37.538Z,53.54
2022-10-13T15:25:11.943Z,53.89
2022-10-13T15:27:42.319Z,54.13
2022-10-13T15:30:16.994Z,54.21
2022-10-13T15:32:45.239Z,54.20
2022-10-13T15:35:15.854Z,53.97
2022-10-13T15:37:44.099Z,54.18
2022-10-13T15:40:13.862Z,54.21
2022-10-13T15:42:46.315Z,54.56
2022-10-13T15:45:17.495Z,54.34
2022-10-13T15:47:46.533Z,54.63
2022-10-13T15:50:16.881Z,54.70
2022-10-13T15:52:45.173Z,55.03
2022-10-13T15:55:19.201Z,55.35
2022-10-13T15:57:50.541Z,55.39
2022-10-13T16:00:22.781Z,55.57
2022-10-13T16:02:52.168Z,55.71
2022-10-13T16:05:23.776Z,55.85
2022-10-13T16:07:54.805Z,55.83
2022-10-13T16:10:23.973Z,55.82
2022-10-13T16:12:53.720Z,55.85
2022-10-13T16:15:21.976Z,55.93
2022-10-13T16:17:52.545Z,55.91
2022-10-13T16:20:21.261Z,56.19
2022-10-13T16:22:50.592Z,56.16
2022-10-13T16:25:18.953Z,56.06
2022-10-13T16:27:47.160Z,56.21
2022-10-13T16:30:18.506Z,56.47
2022-10-13T16:32:47.094Z,56.44
2022-10-13T16:35:16.552Z,56.64
2022-10-13T16:37:46.803Z,56.75
2022-10-13T16:40:18.579Z,56.93
2022-10-13T16:42:54.961Z,57.13
2022-10-13T16:45:55.142Z,57.14
2022-10-13T16:48:32.271Z,57.09
2022-10-13T16:51:10.725Z,57.24
2022-10-13T16:53:42.024Z,57.23
2022-10-13T16:56:36.768Z,57.31
2022-10-13T16:59:22.250Z,57.20
2022-10-13T17:02:00.438Z,57.38
2022-10-13T17:04:43.971Z,57.46
2022-10-13T17:07:26.434Z,57.59
2022-10-13T17:10:13.662Z,57.77
2022-10-13T17:12:53.126Z,57.64
2022-10-13T17:15:23.260Z,57.83
2022-10-13T17:18:05.195Z,57.86
2022-10-13T17:20:44.156Z,58.08
2022-10-13T17:23:19.714Z,58.34
2022-10-13T17:25:55.764Z,58.07
2022-10-13T17:28:30.905Z,58.35
2022-10-13T17:31:04.154Z,58.50
2022-10-13T17:33:47.786Z,58.37
2022-10-13T17:36:19.707Z,58.39
2022-10-13T17:39:00.496Z,58.45
2022-10-13T17:41:36.602Z,58.82
2022-10-13T17:44:06.958Z,58.96
2022-10-13T17:46:42.560Z,58.73
2022-10-13T17:49:18.811Z,59.04
2022-10-13T17:51:50.185Z,59.03
2022-10-13T17:54:23.093Z,59.20
2022-10-13T17:56:53.772Z,59.06
2022-10-13T17:59:29.654Z,59.22
2022-10-13T18:02:02.852Z,59.26
2022-10-13T18:04:32.987Z,59.31
2022-10-13T18:07:02.689Z,59.30
2022-10-13T18:09:40.665Z,59.58
2022-10-13T18:12:12.865Z,59.72
2022-10-13T18:14:43.878Z,59.79
2022-10-13T18:17:16.253Z,59.79
2022-10-13T18:19:51.279Z,59.84
2022-10-13T18:22:22.949Z,59.99
2022-10-13T18:25:02.335Z,59.82
2022-10-13T18:27:33.122Z,59.85
2022-10-13T18:30:02.193Z,60.17
2022-10-13T18:32:34.765Z,59.89
2022-10-13T18:35:10.306Z,59.95
2022-10-13T18:37:42.129Z,59.81
2022-10-13T18:40:23.397Z,60.06
2022-10-13T18:42:54.948Z,59.88
2022-10-13T18:45:25.986Z,59.89
2022-10-13T18:48:02.695Z,60.08
2022-10-13T18:50:39.013Z,59.95
2022-10-13T18:53:20.368Z,59.94
2022-10-13T18:55:50.151Z,59.87
2022-10-13T18:58:23.620Z,59.87
2022-10-13T19:01:03.026Z,59.88
2022-10-13T19:03:44.118Z,60.07
2022-10-13T19:06:29.649Z,59.91
2022-10-13T19:09:10.147Z,60.23
2022-10-13T19:11:57.690Z,60.04
2022-10-13T19:14:54.348Z,60.11
2022-10-13T19:17:27.251Z,60.16
2022-10-13T19:19:55.809Z,59.99
2022-10-13T19:22:36.129Z,60.21
2022-10-13T19:25:21.757Z,60.08
2022-10-13T19:27:57.298Z,60.20
2022-10-13T19:30:32.725Z,60.19
2022-10-13T19:33:07.347Z,60.09
2022-10-13T19:35:54.017Z,59.98
2022-10-13T19:38:29.920Z,60.23
2022-10-13T19:41:15.427Z,60.11
2022-10-13T19:44:01.012Z,60.12
2022-10-13T19:46:40.684Z,60.13
2022-10-13T19:49:21.834Z,60.26
2022-10-13T19:51:56.916Z,60.09
2022-10-13T19:54:33.755Z,60.31
2022-10-13T19:57:03.509Z,60.28
2022-10-13T19:59:33.709Z,60.31
2022-10-13T20:02:11.204Z,60.48
2022-10-13T20:04:58.137Z,60.21
2022-10-13T20:07:32.384Z,60.32
2022-10-13T20:10:23.450Z,60.26
2022-10-13T20:12:56.527Z,60.48
2022-10-13T20:15:26.283Z,60.33
2022-10-13T20:18:03.333Z,60.58
2022-10-13T20:20:40.128Z,60.50
2022-10-13T20:23:09.720Z,60.55
2022-10-13T20:25:47.224Z,60.55
2022-10-13T20:28:20.422Z,60.46
2022-10-13T20:30:49.754Z,60.49
2022-10-13T20:33:22.333Z,60.65
2022-10-13T20:35:57.621Z,60.67
2022-10-13T20:38:26.285Z,60.37
2022-10-13T20:41:00.622Z,60.43
2022-10-13T20:43:34.304Z,60.65
2022-10-13T20:46:11.084Z,60.49
2022-10-13T20:49:09.824Z,60.70
2022-10-13T20:51:38.937Z,60.63
2022-10-13T20:54:08.612Z,60.73
2022-10-13T20:56:40.526Z,60.81
2022-10-13T20:59:16.326Z,60.78
2022-10-13T21:01:46.719Z,60.77
2022-10-13T21:04:18.926Z,60.87
2022-10-13T21:06:51.197Z,60.90
2022-10-13T21:09:29.361Z,60.99
2022-10-13T21:12:02.517Z,60.97
2022-10-13T21:14:32.617Z,60.97
2022-10-13T21:17:01.988Z,61.38
2022-10-13T21:19:30.599Z,61.33
2022-10-13T21:22:02.174Z,61.50
2022-10-13T21:24:39.539Z,61.29
2022-10-13T21:27:13.994Z,61.29
2022-10-13T21:29:43.592Z,61.33
2022-10-13T21:32:12.184Z,61.26
2022-10-13T21:34:42.149Z,61.54
2022-10-13T21:37:12.530Z,61.48
2022-10-13T21:39:42.841Z,61.44
2022-10-13T21:42:21.065Z,61.40
2022-10-13T21:44:55.182Z,61.46
2022-10-13T21:47:30.861Z,61.23
2022-10-13T21:50:07.873Z,61.11
2022-10-13T21:52:39.882Z,61.18
2022-10-13T21:55:10.953Z,61.01
2022-10-13T21:57:44.006Z,60.93
2022-10-13T22:00:16.708Z,61.04
2022-10-13T22:02:52.348Z,60.92
2022-10-13T22:05:27.635Z,60.91
2022-10-13T22:08:00.592Z,61.03
2022-10-13T22:10:29.286Z,60.98
2022-10-13T22:12:59.565Z,60.94
2022-10-13T22:15:34.032Z,60.91
2022-10-13T22:18:05.713Z,60.89
2022-10-13T22:20:45.840Z,60.88
2022-10-13T22:23:23.690Z,60.84
2022-10-13T22:25:55.775Z,60.96
2022-10-13T22:28:37.598Z,60.77
2022-10-13T22:31:08.011Z,61.05
2022-10-13T22:33:39.900Z,60.81
2022-10-13T22:36:10.709Z,60.95
2022-10-13T22:38:39.187Z,61.03
2022-10-13T22:41:13.506Z,61.28
2022-10-13T22:43:54.792Z,61.18
2022-10-13T22:46:29.691Z,61.24
2022-10-13T22:48:58.593Z,61.25
2022-10-13T22:51:33.592Z,61.05
2022-10-13T22:54:06.556Z,60.99
2022-10-13T22:56:37.924Z,60.99
2022-10-13T22:59:14.037Z,60.74
2022-10-13T23:01:47.106Z,60.73
2022-10-13T23:04:17.481Z,60.91
2022-10-13T23:06:47.878Z,60.69
2022-10-13T23:09:18.209Z,60.63
2022-10-13T23:11:56.281Z,60.82
2022-10-13T23:14:32.077Z,60.79
2022-10-13T23:17:07.911Z,60.81
2022-10-13T23:19:38.811Z,60.79
2022-10-13T23:22:10.249Z,60.77
2022-10-13T23:24:40.609Z,60.74
2022-10-13T23:27:09.819Z,60.76
2022-10-13T23:29:43.089Z,60.72
2022-10-13T23:32:19.759Z,60.73
2022-10-13T23:35:04.830Z,60.79
2022-10-13T23:37:38.348Z,60.72
2022-10-13T23:40:08.973Z,60.67
2022-10-13T23:42:43.823Z,60.71
2022-10-13T23:45:16.475Z,60.64
2022-10-13T23:48:00.737Z,60.68
2022-10-13T23:50:37.624Z,60.69
2022-10-13T23:53:12.149Z,60.81
2022-10-13T23:55:42.475Z,60.80
2022-10-13T23:58:12.949Z,60.72
